Time;durP1;ratioP1;P1;durP2;ratioP2;P2;SDS_P1;SDS_P2;PMS_P1;PMS_P2;Temp;Humidity;BMP_temperature;BMP_pressure;BME280_temperature;BME280_humidity;BME280_pressure;Samples;Min_cycle;Max_cycle;Signal;HPM_P1;HPM_P2
2023/05/04 00:01:23;;;;;;;8.52;6.78;;;23.40;52.50;;;;;;7604194;23;81234;-61
2023/05/04 00:04:24;;;;;;;9.50;6.55;;;23.40;52.50;;;;;;7603979;23;80565;-61
2023/05/04 00:07:24;;;;;;;8.75;7.20;;;23.40;52.60;;;;;;7602907;23;84943;-59
2023/05/04 00:10:26;;;;;;;8.05;6.70;;;23.40;52.50;;;;;;7605239;23;80360;-56
2023/05/04 00:13:27;;;;;;;8.90;7.22;;;23.40;52.60;;;;;;7604758;23;80152;-57
2023/05/04 00:16:27;;;;;;;8.05;7.00;;;23.40;52.60;;;;;;7605333;23;81271;-56
2023/05/04 00:19:28;;;;;;;10.10;7.93;;;23.30;52.50;;;;;;7606039;23;80372;-58
2023/05/04 00:22:29;;;;;;;9.25;7.30;;;23.40;52.50;;;;;;7604946;23;80529;-58
2023/05/04 00:25:29;;;;;;;9.95;7.85;;;23.40;52.40;;;;;;7605124;23;80354;-67
2023/05/04 00:28:30;;;;;;;11.40;7.65;;;23.40;52.30;;;;;;7604415;23;80188;-69
2023/05/04 00:31:30;;;;;;;10.57;7.32;;;23.40;52.30;;;;;;7605951;23;80588;-74
2023/05/04 00:34:33;;;;;;;10.30;7.03;;;23.30;52.40;;;;;;7603210;23;80734;-72
2023/05/04 00:37:33;;;;;;;10.00;7.50;;;23.30;52.40;;;;;;7603943;23;80218;-72
2023/05/04 00:40:34;;;;;;;8.60;6.82;;;23.40;52.40;;;;;;7604541;23;80809;-70
2023/05/04 00:43:34;;;;;;;8.80;6.97;;;23.30;52.50;;;;;;7604880;23;80955;-56
2023/05/04 00:46:35;;;;;;;10.18;7.55;;;23.30;52.30;;;;;;7577345;23;80518;-59
2023/05/04 00:49:36;;;;;;;9.15;7.03;;;23.30;52.10;;;;;;7604783;23;80198;-56
2023/05/04 00:52:36;;;;;;;8.20;6.47;;;23.30;52.40;;;;;;7604684;23;80517;-59
2023/05/04 00:55:37;;;;;;;9.82;6.18;;;23.30;52.40;;;;;;7578100;23;83328;-57
2023/05/04 00:58:37;;;;;;;8.75;6.13;;;23.30;52.30;;;;;;7603640;23;80244;-58
2023/05/04 01:01:38;;;;;;;8.40;6.50;;;23.30;52.20;;;;;;7605757;23;81218;-58
2023/05/04 01:04:38;;;;;;;10.07;6.55;;;23.30;52.30;;;;;;7603794;23;80548;-59
2023/05/04 01:07:39;;;;;;;12.48;7.00;;;23.30;52.30;;;;;;7604792;23;80792;-58
2023/05/04 01:10:40;;;;;;;9.57;5.70;;;23.30;52.30;;;;;;7577472;23;81567;-53
2023/05/04 01:13:40;;;;;;;8.13;6.78;;;23.30;52.20;;;;;;7605187;23;80790;-57
2023/05/04 01:16:41;;;;;;;10.65;7.15;;;23.30;52.20;;;;;;7579151;23;83346;-55
2023/05/04 01:19:41;;;;;;;8.43;7.00;;;23.40;52.20;;;;;;7604570;23;80443;-60
2023/05/04 01:22:42;;;;;;;8.20;6.53;;;23.30;52.10;;;;;;7604918;23;80205;-60
2023/05/04 01:25:43;;;;;;;8.80;6.95;;;23.40;52.20;;;;;;7604222;23;80981;-60
2023/05/04 01:28:43;;;;;;;9.13;6.88;;;23.40;52.20;;;;;;7577607;23;81785;-61
2023/05/04 01:31:44;;;;;;;9.52;6.88;;;23.30;52.30;;;;;;7577613;23;80487;-61
2023/05/04 01:34:44;;;;;;;7.18;5.90;;;23.30;52.20;;;;;;7605620;23;80446;-60
2023/05/04 01:37:45;;;;;;;7.35;6.20;;;23.30;52.40;;;;;;7604092;23;80504;-55
2023/05/04 01:40:45;;;;;;;10.13;6.70;;;23.30;52.20;;;;;;7604646;23;80945;-53
2023/05/04 01:43:46;;;;;;;8.82;6.30;;;23.30;52.10;;;;;;7578014;23;83064;-56
2023/05/04 01:46:46;;;;;;;6.97;5.68;;;23.30;52.20;;;;;;7604610;23;80814;-57
2023/05/04 01:49:47;;;;;;;9.30;5.88;;;23.30;52.20;;;;;;7604463;23;80964;-58
2023/05/04 01:52:49;;;;;;;9.90;7.00;;;23.30;52.20;;;;;;7603783;23;80670;-55
2023/05/04 01:55:50;;;;;;;10.13;6.43;;;23.30;52.20;;;;;;7604090;23;80440;-61
2023/05/04 01:58:50;;;;;;;8.52;6.68;;;23.30;52.20;;;;;;7576873;23;82957;-57
2023/05/04 02:01:51;;;;;;;8.77;7.10;;;23.30;52.20;;;;;;7577026;23;82038;-57
2023/05/04 02:04:51;;;;;;;7.68;5.93;;;23.30;52.20;;;;;;7600813;23;80792;-53
2023/05/04 02:07:52;;;;;;;8.70;6.07;;;23.30;52.20;;;;;;7577337;23;80822;-56
2023/05/04 02:10:52;;;;;;;8.13;6.55;;;23.30;52.10;;;;;;7577227;23;83170;-56
2023/05/04 02:13:53;;;;;;;9.13;7.05;;;23.30;52.20;;;;;;7604242;23;80880;-56
2023/05/04 02:16:53;;;;;;;7.63;6.10;;;23.30;52.20;;;;;;7605023;23;80200;-59
2023/05/04 02:19:54;;;;;;;8.73;6.60;;;23.30;52.30;;;;;;7604111;23;80865;-60
2023/05/04 02:22:54;;;;;;;7.82;5.90;;;23.30;52.20;;;;;;7576611;23;83102;-61
2023/05/04 02:25:55;;;;;;;8.48;7.03;;;23.30;52.00;;;;;;7604247;23;80429;-62
2023/05/04 02:28:55;;;;;;;8.60;6.25;;;23.30;52.10;;;;;;7575720;23;82936;-60
2023/05/04 02:42:39;;;;;;;8.68;6.25;;;23.30;51.90;;;;;;7567188;22;80392;-61
2023/05/04 02:45:40;;;;;;;9.00;5.82;;;23.30;51.80;;;;;;7541214;23;82122;-61
2023/05/04 02:48:40;;;;;;;7.88;6.13;;;23.30;51.60;;;;;;7540616;23;81756;-61
2023/05/04 02:51:42;;;;;;;8.80;6.10;;;23.30;51.60;;;;;;7567509;23;80810;-59
2023/05/04 02:54:42;;;;;;;10.02;6.15;;;23.30;51.50;;;;;;7568550;23;80642;-60
2023/05/04 02:57:43;;;;;;;8.88;5.88;;;23.30;51.40;;;;;;7569274;23;80396;-63
2023/05/04 03:00:43;;;;;;;8.75;5.57;;;23.30;51.40;;;;;;7542542;23;83297;-62
2023/05/04 03:03:46;;;;;;;9.38;5.57;;;23.30;51.40;;;;;;7568629;23;80325;-60
2023/05/04 03:06:47;;;;;;;6.97;5.22;;;23.30;51.30;;;;;;7568066;23;81070;-59
2023/05/04 03:09:47;;;;;;;7.03;5.45;;;23.30;51.30;;;;;;7568377;23;80247;-61
2023/05/04 03:12:48;;;;;;;11.35;5.70;;;23.30;51.20;;;;;;7566694;23;80249;-61
2023/05/04 03:15:48;;;;;;;8.30;5.80;;;23.30;51.10;;;;;;7568927;23;80303;-64
2023/05/04 03:18:49;;;;;;;7.05;5.18;;;23.20;51.00;;;;;;7541840;23;83105;-61
2023/05/04 03:21:50;;;;;;;9.07;5.63;;;23.30;50.80;;;;;;7568959;23;80469;-63
2023/05/04 03:24:53;;;;;;;7.03;4.93;;;23.30;51.10;;;;;;7541990;23;82237;-63
2023/05/04 03:27:53;;;;;;;8.50;5.22;;;23.30;50.90;;;;;;7568131;23;80775;-61
2023/05/04 03:30:54;;;;;;;9.60;5.35;;;23.20;50.90;;;;;;7564675;23;80296;-61
2023/05/04 03:33:55;;;;;;;8.35;5.95;;;23.30;50.80;;;;;;7538529;23;83052;-61
2023/05/04 03:36:56;;;;;;;8.80;4.72;;;23.30;50.70;;;;;;7538074;23;83285;-64
2023/05/04 03:39:58;;;;;;;8.43;5.38;;;23.30;50.90;;;;;;7542789;23;83023;-62
2023/05/04 03:42:58;;;;;;;8.70;5.00;;;23.30;50.90;;;;;;7598460;23;80366;-61
2023/05/04 03:46:00;;;;;;;8.93;5.10;;;23.30;50.80;;;;;;7601523;23;82721;-66
2023/05/04 03:49:00;;;;;;;8.10;4.93;;;23.20;50.60;;;;;;7602222;23;80458;-62
2023/05/04 03:52:02;;;;;;;7.05;5.25;;;23.20;50.60;;;;;;7568404;23;81784;-63
2023/05/04 03:55:02;;;;;;;8.07;5.22;;;23.20;50.40;;;;;;7576368;23;83191;-65
2023/05/04 03:58:03;;;;;;;7.93;4.60;;;23.20;50.80;;;;;;7574970;23;80766;-60
2023/05/04 04:01:05;;;;;;;8.15;5.15;;;23.20;50.60;;;;;;7574810;23;82257;-62
2023/05/04 04:04:05;;;;;;;8.18;5.00;;;23.20;50.40;;;;;;7603870;23;80517;-60
2023/05/04 04:07:06;;;;;;;9.48;4.75;;;23.20;50.90;;;;;;7601664;23;81683;-58
2023/05/04 04:10:07;;;;;;;12.68;5.15;;;23.20;50.70;;;;;;7574436;23;82457;-57
2023/05/04 04:13:07;;;;;;;7.65;4.88;;;23.20;50.70;;;;;;7603650;23;80350;-56
2023/05/04 04:16:08;;;;;;;6.90;4.90;;;23.20;50.90;;;;;;7603814;23;80683;-51
2023/05/04 04:19:08;;;;;;;10.30;4.57;;;23.20;50.90;;;;;;7601193;23;80637;-57
2023/05/04 04:22:09;;;;;;;8.80;5.05;;;23.30;50.80;;;;;;7575857;23;82219;-51
2023/05/04 04:25:09;;;;;;;9.35;4.95;;;23.30;50.70;;;;;;7600766;23;81060;-56
2023/05/04 04:28:10;;;;;;;9.45;4.95;;;23.20;50.60;;;;;;7602322;23;80115;-57
2023/05/04 04:31:10;;;;;;;11.07;4.65;;;23.20;50.40;;;;;;7600876;23;80484;-56
2023/05/04 04:34:11;;;;;;;11.75;4.70;;;23.20;50.30;;;;;;7603383;23;80435;-56
2023/05/04 04:37:11;;;;;;;12.73;4.45;;;23.20;49.90;;;;;;7604088;23;81725;-55
2023/05/04 04:40:12;;;;;;;13.38;5.60;;;23.20;50.50;;;;;;7603006;23;80311;-58
2023/05/04 04:43:13;;;;;;;8.57;5.28;;;23.20;49.90;;;;;;7605020;23;80092;-52
2023/05/04 04:46:14;;;;;;;10.48;4.80;;;23.20;49.80;;;;;;7604366;23;80389;-50
2023/05/04 04:49:16;;;;;;;8.30;5.15;;;23.20;49.40;;;;;;7605815;23;80111;-48
2023/05/04 04:52:17;;;;;;;12.68;4.90;;;23.20;49.30;;;;;;7603127;23;81179;-51
2023/05/04 04:55:17;;;;;;;10.45;5.05;;;23.20;49.20;;;;;;7603665;23;80608;-52
2023/05/04 04:58:18;;;;;;;11.98;5.68;;;23.10;49.00;;;;;;7604465;23;80268;-51
2023/05/04 05:01:18;;;;;;;12.13;5.25;;;23.10;48.90;;;;;;7603382;23;80262;-52
2023/05/04 05:04:20;;;;;;;9.20;4.65;;;23.10;48.80;;;;;;7603189;23;80349;-58
2023/05/04 05:07:21;;;;;;;8.02;4.90;;;23.10;48.90;;;;;;7605429;23;80702;-57
2023/05/04 05:10:22;;;;;;;10.48;5.43;;;23.10;48.60;;;;;;7600329;23;80198;-58
2023/05/04 05:13:22;;;;;;;9.35;5.32;;;23.10;48.60;;;;;;7600627;23;80333;-58
2023/05/04 05:16:23;;;;;;;9.95;4.80;;;23.10;48.50;;;;;;7601308;23;80635;-57
2023/05/04 05:19:24;;;;;;;11.50;4.53;;;23.10;48.40;;;;;;7601016;23;80717;-56
2023/05/04 05:22:24;;;;;;;10.20;4.55;;;23.10;48.30;;;;;;7600606;23;84869;-58
2023/05/04 05:25:25;;;;;;;10.35;5.32;;;23.10;48.10;;;;;;7595456;23;80511;-59
2023/05/04 05:28:25;;;;;;;9.60;5.15;;;23.10;48.10;;;;;;7604640;23;80702;-56
2023/05/04 05:31:26;;;;;;;8.60;5.20;;;23.10;48.00;;;;;;7601090;23;80386;-51
2023/05/04 05:34:27;;;;;;;9.18;5.43;;;23.20;48.20;;;;;;7603811;23;81396;-49
2023/05/04 05:37:27;;;;;;;11.50;5.82;;;23.20;48.20;;;;;;7603707;23;80380;-55
2023/05/04 05:40:28;;;;;;;11.23;6.05;;;23.20;47.90;;;;;;7593001;23;80455;-56
2023/05/04 05:43:28;;;;;;;10.55;6.10;;;23.10;46.50;;;;;;7561400;23;81697;-52
2023/05/04 05:46:29;;;;;;;10.65;5.40;;;23.00;46.00;;;;;;7554101;23;80876;-55
2023/05/04 05:49:29;;;;;;;8.90;5.63;;;23.10;45.60;;;;;;7562821;23;80647;-57
2023/05/04 05:52:30;;;;;;;9.65;6.18;;;23.10;45.30;;;;;;7564407;23;80042;-57
2023/05/04 05:55:30;;;;;;;13.52;6.35;;;23.10;45.00;;;;;;7566758;23;80325;-57
2023/05/04 05:58:31;;;;;;;10.13;5.60;;;23.10;44.70;;;;;;7566369;23;80987;-48
2023/05/04 06:01:31;;;;;;;12.68;5.63;;;23.10;44.80;;;;;;7539851;23;81465;-57
2023/05/04 06:04:32;;;;;;;8.77;5.22;;;23.10;44.80;;;;;;7530548;23;81819;-58
2023/05/04 06:07:32;;;;;;;15.20;6.40;;;23.10;45.50;;;;;;7564002;23;81853;-57
2023/05/04 06:10:33;;;;;;;10.23;5.60;;;23.10;45.70;;;;;;7571060;23;80476;-53
2023/05/04 06:13:34;;;;;;;12.55;6.35;;;23.10;45.60;;;;;;7570832;23;80460;-62
2023/05/04 06:16:34;;;;;;;10.73;6.13;;;23.20;44.80;;;;;;7570162;23;80309;-60
2023/05/04 06:19:35;;;;;;;12.48;6.25;;;23.20;44.60;;;;;;7568819;23;80485;-62
2023/05/04 06:22:35;;;;;;;10.40;7.30;;;23.20;44.60;;;;;;7567548;23;80532;-59
2023/05/04 06:25:36;;;;;;;12.48;8.13;;;23.20;45.00;;;;;;7542883;23;81104;-59
2023/05/04 06:28:37;;;;;;;11.57;7.22;;;23.20;44.90;;;;;;7567831;23;80217;-63
2023/05/04 06:31:37;;;;;;;11.90;7.20;;;23.20;45.00;;;;;;7567365;23;80537;-48
2023/05/04 06:34:38;;;;;;;9.75;6.28;;;23.20;44.80;;;;;;7567055;23;80687;-61
2023/05/04 06:37:38;;;;;;;9.77;6.55;;;23.20;44.60;;;;;;7562329;23;82331;-61
2023/05/04 06:40:39;;;;;;;10.50;6.05;;;23.30;44.80;;;;;;7576691;23;86569;-61
2023/05/04 06:43:43;;;;;;;12.55;7.60;;;23.30;44.50;;;;;;7604469;23;80048;-58
2023/05/04 06:46:43;;;;;;;8.98;5.45;;;23.30;44.30;;;;;;7603539;23;80402;-59
2023/05/04 06:49:44;;;;;;;10.48;5.30;;;23.40;44.50;;;;;;7606561;23;80991;-59
2023/05/04 06:52:45;;;;;;;9.20;5.20;;;23.40;44.30;;;;;;7601488;23;80751;-59
2023/05/04 06:55:45;;;;;;;9.18;5.40;;;23.40;44.40;;;;;;7605907;23;80244;-60
2023/05/04 06:58:46;;;;;;;9.70;5.65;;;23.40;44.30;;;;;;7606288;23;80819;-57
2023/05/04 07:01:46;;;;;;;9.32;5.50;;;23.40;44.30;;;;;;7603472;23;81198;-61
2023/05/04 07:04:47;;;;;;;9.13;5.65;;;23.40;44.40;;;;;;7605722;23;80743;-60
2023/05/04 07:07:48;;;;;;;10.15;5.55;;;23.40;44.20;;;;;;7602070;23;80712;-61
2023/05/04 07:10:48;;;;;;;10.05;5.00;;;23.50;44.10;;;;;;7603390;23;80628;-61
2023/05/04 07:13:49;;;;;;;7.97;4.72;;;23.50;43.90;;;;;;7606227;23;81299;-60
2023/05/04 07:16:49;;;;;;;10.07;4.53;;;23.50;43.70;;;;;;7604449;23;80462;-60
2023/05/04 07:19:53;;;;;;;6.45;4.63;;;23.50;43.40;;;;;;7602757;23;81450;-64
2023/05/04 07:22:56;;;;;;;8.23;4.82;;;23.60;43.20;;;;;;7604709;23;80565;-60
2023/05/04 07:25:57;;;;;;;7.07;4.25;;;23.50;43.00;;;;;;7606502;23;80024;-60
2023/05/04 07:28:57;;;;;;;13.10;4.95;;;23.60;42.80;;;;;;7602611;23;80882;-58
2023/05/04 07:31:58;;;;;;;10.07;4.75;;;23.60;42.70;;;;;;7607110;23;80363;-58
2023/05/04 07:34:58;;;;;;;6.55;4.13;;;23.60;42.40;;;;;;7603497;23;80409;-57
2023/05/04 07:37:59;;;;;;;9.00;4.30;;;23.60;42.20;;;;;;7608185;23;80991;-58
2023/05/04 07:40:59;;;;;;;8.45;4.57;;;23.60;42.10;;;;;;7580604;23;80610;-56
2023/05/04 07:44:04;;;;;;;8.40;4.45;;;23.60;42.10;;;;;;7607142;23;81082;-57
2023/05/04 07:47:05;;;;;;;7.00;4.50;;;23.60;42.10;;;;;;7608031;23;81708;-64
2023/05/04 07:50:06;;;;;;;8.63;4.25;;;23.60;42.00;;;;;;7592629;23;81035;-61
2023/05/04 07:53:06;;;;;;;7.90;4.55;;;23.70;42.10;;;;;;7604025;23;82564;-62
2023/05/04 07:56:07;;;;;;;6.88;4.60;;;23.70;42.00;;;;;;7602340;23;80716;-63
2023/05/04 07:59:07;;;;;;;7.60;4.22;;;23.70;41.90;;;;;;7600948;23;80311;-64
2023/05/04 08:02:09;;;;;;;5.75;4.25;;;23.70;42.00;;;;;;7607686;23;80294;-64
2023/05/04 08:05:09;;;;;;;6.95;4.07;;;23.70;42.00;;;;;;7603558;23;80324;-57
2023/05/04 08:08:10;;;;;;;8.95;4.68;;;23.70;42.00;;;;;;7606791;23;81137;-59
2023/05/04 08:11:12;;;;;;;7.97;4.32;;;23.70;42.00;;;;;;7607451;23;80426;-58
2023/05/04 08:14:12;;;;;;;6.63;4.47;;;23.70;42.10;;;;;;7606415;23;80349;-57
2023/05/04 08:17:13;;;;;;;6.90;3.88;;;23.70;42.60;;;;;;7605708;23;80779;-59
2023/05/04 08:20:14;;;;;;;9.02;4.63;;;23.70;41.90;;;;;;7598966;23;80368;-58
2023/05/04 08:23:14;;;;;;;6.80;4.20;;;23.70;41.90;;;;;;7606644;23;80916;-62
2023/05/04 08:26:15;;;;;;;8.32;4.05;;;23.70;41.80;;;;;;7604645;23;82456;-61
2023/05/04 08:29:15;;;;;;;7.00;4.43;;;23.80;41.80;;;;;;7605836;23;80946;-61
2023/05/04 08:32:16;;;;;;;5.80;3.72;;;23.80;41.80;;;;;;7604438;23;81483;-61
2023/05/04 08:35:17;;;;;;;5.57;4.05;;;23.80;41.80;;;;;;7606966;23;81226;-59
2023/05/04 08:38:17;;;;;;;11.85;4.70;;;23.90;41.90;;;;;;7603264;23;80690;-60
2023/05/04 08:41:18;;;;;;;6.22;3.72;;;23.90;41.70;;;;;;7605054;23;80495;-60
2023/05/04 08:44:18;;;;;;;5.60;3.78;;;23.90;41.50;;;;;;7603841;23;81045;-59
2023/05/04 08:47:19;;;;;;;5.78;3.35;;;23.90;41.50;;;;;;7599119;23;81069;-62
2023/05/04 08:50:20;;;;;;;6.05;3.78;;;23.90;41.40;;;;;;7576514;23;81640;-62
2023/05/04 08:53:20;;;;;;;6.97;4.40;;;23.90;41.40;;;;;;7606876;23;81107;-62
2023/05/04 08:56:21;;;;;;;5.22;3.70;;;23.90;41.40;;;;;;7606339;23;80972;-61
2023/05/04 08:59:22;;;;;;;5.60;3.13;;;23.90;41.10;;;;;;7605172;23;80556;-60
2023/05/04 09:02:22;;;;;;;6.20;3.72;;;23.90;40.70;;;;;;7601331;23;80345;-60
2023/05/04 09:05:23;;;;;;;5.75;3.47;;;23.90;40.50;;;;;;7605379;23;80468;-59
2023/05/04 09:08:24;;;;;;;5.13;2.88;;;23.90;40.50;;;;;;7603903;23;80209;-59
2023/05/04 09:11:24;;;;;;;5.38;3.60;;;23.90;40.70;;;;;;7577343;23;80661;-59
2023/05/04 09:14:25;;;;;;;3.80;2.97;;;23.90;40.50;;;;;;7605314;23;80165;-58
2023/05/04 09:17:28;;;;;;;6.43;3.63;;;23.90;40.50;;;;;;7601952;23;81338;-62
2023/05/04 09:20:29;;;;;;;3.85;2.80;;;23.90;40.40;;;;;;7604840;23;80859;-64
2023/05/04 09:23:30;;;;;;;6.57;3.95;;;23.90;40.40;;;;;;7605644;23;80048;-62
2023/05/04 09:26:30;;;;;;;4.78;3.33;;;23.90;40.50;;;;;;7603417;23;80699;-61
2023/05/04 09:29:31;;;;;;;7.25;3.30;;;23.90;40.40;;;;;;7598350;23;80592;-64
2023/05/04 09:32:32;;;;;;;7.10;3.72;;;23.90;40.40;;;;;;7601954;23;80137;-62
2023/05/04 09:35:32;;;;;;;7.50;3.58;;;23.90;40.30;;;;;;7606244;23;80728;-71
2023/05/04 09:38:33;;;;;;;4.40;3.47;;;23.90;40.40;;;;;;7602494;23;80793;-70
2023/05/04 09:41:34;;;;;;;4.57;3.33;;;23.90;40.30;;;;;;7602553;23;80452;-70
2023/05/04 09:44:35;;;;;;;5.03;3.40;;;23.90;40.90;;;;;;7580975;23;82191;-68
2023/05/04 09:47:37;;;;;;;4.40;3.20;;;23.90;40.30;;;;;;7604985;23;81804;-69
2023/05/04 09:50:39;;;;;;;5.25;3.03;;;23.90;40.40;;;;;;7608060;23;80294;-68
2023/05/04 09:53:39;;;;;;;6.38;3.30;;;23.90;40.30;;;;;;7607764;23;80883;-63
2023/05/04 09:56:40;;;;;;;5.90;3.28;;;23.90;40.30;;;;;;7606394;23;80305;-63
2023/05/04 09:59:40;;;;;;;5.15;3.13;;;23.90;40.30;;;;;;7603863;23;81127;-64
2023/05/04 10:02:41;;;;;;;5.40;3.28;;;23.90;40.10;;;;;;7607032;23;80765;-63
2023/05/04 10:05:41;;;;;;;6.85;3.78;;;23.90;40.00;;;;;;7605753;23;80190;-64
2023/05/04 10:08:42;;;;;;;4.38;3.17;;;23.90;40.00;;;;;;7605817;23;80737;-62
2023/05/04 10:11:42;;;;;;;4.32;3.38;;;23.90;40.10;;;;;;7607869;23;80494;-64
2023/05/04 10:14:45;;;;;;;5.18;3.50;;;23.90;39.90;;;;;;7599570;23;80473;-57
2023/05/04 10:17:46;;;;;;;5.10;2.90;;;23.90;40.00;;;;;;7606108;23;81651;-58
2023/05/04 10:20:46;;;;;;;5.80;3.13;;;23.90;39.80;;;;;;7607402;23;80710;-56
2023/05/04 10:23:47;;;;;;;4.88;3.00;;;23.90;39.70;;;;;;7607247;23;80226;-57
2023/05/04 10:26:47;;;;;;;6.47;3.42;;;23.80;39.50;;;;;;7606618;23;80977;-58
2023/05/04 10:29:48;;;;;;;4.68;2.83;;;23.90;39.70;;;;;;7603074;23;80205;-57
2023/05/04 10:32:48;;;;;;;5.25;3.03;;;23.90;39.60;;;;;;7607667;23;80325;-57
2023/05/04 10:35:49;;;;;;;4.03;3.08;;;23.90;39.80;;;;;;7607522;23;80869;-57
2023/05/04 10:38:49;;;;;;;4.70;3.17;;;23.90;39.80;;;;;;7605682;23;80556;-59
2023/05/04 10:41:50;;;;;;;3.58;2.92;;;23.90;39.60;;;;;;7578341;23;82766;-57
2023/05/04 10:44:51;;;;;;;4.40;2.90;;;23.90;39.70;;;;;;7603385;23;81760;-58
2023/05/04 10:47:52;;;;;;;5.78;3.15;;;23.90;39.60;;;;;;7570451;23;80506;-58
2023/05/04 10:50:52;;;;;;;6.43;3.00;;;23.90;39.70;;;;;;7606735;23;81833;-62
2023/05/04 10:53:53;;;;;;;3.90;3.13;;;23.90;39.70;;;;;;7603008;23;80197;-64
2023/05/04 10:56:54;;;;;;;6.35;3.15;;;23.90;39.60;;;;;;7604987;23;80689;-62
2023/05/04 10:59:55;;;;;;;4.35;3.03;;;23.90;39.70;;;;;;7601632;23;80439;-61
2023/05/04 11:02:56;;;;;;;6.97;3.40;;;23.90;39.80;;;;;;7604554;23;80721;-65
2023/05/04 11:05:57;;;;;;;4.53;3.00;;;23.90;39.90;;;;;;7603139;23;80362;-66
2023/05/04 11:08:58;;;;;;;3.70;2.78;;;23.90;40.00;;;;;;7606147;23;80401;-70
2023/05/04 11:11:58;;;;;;;4.40;2.90;;;24.00;40.10;;;;;;7603038;23;80822;-66
2023/05/04 11:14:59;;;;;;;7.13;3.15;;;24.00;40.10;;;;;;7607360;23;80905;-72
2023/05/04 11:17:59;;;;;;;4.95;3.03;;;24.00;40.10;;;;;;7606725;23;80772;-74
2023/05/04 11:21:00;;;;;;;4.68;2.58;;;24.00;39.90;;;;;;7607177;23;81157;-74
2023/05/04 11:24:01;;;;;;;3.60;2.75;;;24.00;39.90;;;;;;7607535;23;81302;-75
2023/05/04 11:27:02;;;;;;;4.03;3.22;;;24.10;39.90;;;;;;7601824;23;80493;-75
2023/05/04 11:30:03;;;;;;;3.67;3.10;;;24.00;39.80;;;;;;7606096;23;80388;-75
2023/05/04 11:33:04;;;;;;;4.32;3.33;;;24.00;40.00;;;;;;7607021;23;80572;-74
2023/05/04 11:36:04;;;;;;;3.75;3.00;;;24.00;39.90;;;;;;7603530;23;80614;-69
2023/05/04 11:39:07;;;;;;;7.78;3.05;;;24.10;40.00;;;;;;7606291;23;80161;-72
2023/05/04 11:42:08;;;;;;;3.53;3.05;;;24.00;39.80;;;;;;7602381;23;80412;-74
2023/05/04 11:45:08;;;;;;;6.13;3.50;;;24.10;39.80;;;;;;7606115;23;80629;-60
2023/05/04 11:48:09;;;;;;;6.50;3.55;;;24.00;39.70;;;;;;7605043;23;80802;-59
2023/05/04 11:51:09;;;;;;;4.60;2.97;;;24.10;39.70;;;;;;7605813;23;80117;-59
2023/05/04 11:54:10;;;;;;;6.28;3.45;;;24.10;39.90;;;;;;7605730;23;80330;-58
2023/05/04 11:57:11;;;;;;;4.95;3.17;;;24.10;39.70;;;;;;7597856;23;81947;-59
2023/05/04 12:00:12;;;;;;;3.85;3.00;;;24.10;39.60;;;;;;7603058;23;80328;-57
2023/05/04 12:03:12;;;;;;;6.75;3.38;;;24.10;39.40;;;;;;7598025;23;80432;-48
2023/05/04 12:06:13;;;;;;;5.55;3.35;;;24.00;39.30;;;;;;7602669;23;80535;-56
2023/05/04 12:09:13;;;;;;;8.23;3.17;;;24.00;39.60;;;;;;7602578;23;81579;-50
2023/05/04 12:12:14;;;;;;;3.85;2.97;;;24.00;39.80;;;;;;7601284;23;80337;-54
2023/05/04 12:15:15;;;;;;;6.45;3.65;;;24.00;39.70;;;;;;7605492;23;80856;-48
2023/05/04 12:18:15;;;;;;;7.57;2.85;;;24.00;39.80;;;;;;7605751;23;80930;-50
2023/05/04 12:21:16;;;;;;;7.25;3.95;;;24.10;39.90;;;;;;7604074;23;80472;-65
2023/05/04 12:24:16;;;;;;;8.15;3.92;;;24.10;40.00;;;;;;7601497;23;80852;-73
2023/05/04 12:27:17;;;;;;;7.22;4.32;;;24.10;40.20;;;;;;7606037;23;80705;-64
2023/05/04 12:30:17;;;;;;;9.73;5.63;;;24.10;40.30;;;;;;7605802;23;80329;-71
2023/05/04 12:33:18;;;;;;;10.45;5.57;;;24.10;40.30;;;;;;7606744;23;80863;-66
2023/05/04 12:36:19;;;;;;;8.77;5.15;;;24.10;40.40;;;;;;7603397;23;79979;-68
2023/05/04 12:39:19;;;;;;;8.55;5.10;;;24.10;40.40;;;;;;7605505;23;87196;-63
2023/05/04 12:42:20;;;;;;;10.65;4.82;;;24.10;40.40;;;;;;7603092;23;80248;-63
2023/05/04 12:45:21;;;;;;;7.38;4.40;;;24.00;40.30;;;;;;7603212;23;80553;-66
2023/05/04 12:48:22;;;;;;;8.68;3.60;;;24.00;40.30;;;;;;7601975;23;80206;-65
2023/05/04 12:51:22;;;;;;;6.78;3.60;;;23.90;39.60;;;;;;7602577;23;80997;-65
2023/05/04 12:54:23;;;;;;;5.75;3.20;;;23.80;38.90;;;;;;7602741;23;80520;-65
2023/05/04 12:57:24;;;;;;;6.72;3.40;;;23.80;38.20;;;;;;7602938;23;80864;-65
2023/05/04 13:00:24;;;;;;;5.60;3.10;;;23.70;38.60;;;;;;7601222;23;85601;-71
2023/05/04 13:03:25;;;;;;;7.10;2.97;;;23.60;38.50;;;;;;7601621;23;80812;-75
2023/05/04 13:06:25;;;;;;;6.05;2.95;;;23.60;37.90;;;;;;7599783;23;80485;-69
2023/05/04 13:09:26;;;;;;;4.57;2.67;;;23.60;37.40;;;;;;7605487;23;81496;-70
2023/05/04 13:12:26;;;;;;;8.32;3.05;;;23.50;37.50;;;;;;7604405;23;79900;-68
2023/05/04 13:15:31;;;;;;;8.10;2.88;;;23.50;37.80;;;;;;7598064;23;81384;-72
2023/05/04 13:18:32;;;;;;;4.80;2.60;;;23.50;37.90;;;;;;7607194;23;80924;-63
2023/05/04 13:21:32;;;;;;;7.30;2.85;;;23.50;38.10;;;;;;7605812;23;80203;-66
2023/05/04 13:24:33;;;;;;;4.43;3.00;;;23.50;37.70;;;;;;7605067;23;80811;-64
2023/05/04 13:27:33;;;;;;;7.78;2.83;;;23.60;38.00;;;;;;7606672;23;80279;-65
2023/05/04 13:30:34;;;;;;;6.55;2.80;;;23.60;37.60;;;;;;7602162;23;80631;-64
2023/05/04 13:33:37;;;;;;;5.30;3.00;;;23.50;37.70;;;;;;7607013;23;80221;-64
2023/05/04 13:36:38;;;;;;;6.97;2.90;;;23.50;37.00;;;;;;7606438;23;80386;-62
2023/05/04 13:39:38;;;;;;;5.28;3.05;;;23.50;37.20;;;;;;7579364;23;80330;-68
2023/05/04 13:42:39;;;;;;;4.90;2.50;;;23.50;37.30;;;;;;7586321;23;81073;-67
2023/05/04 13:45:39;;;;;;;2.60;2.33;;;23.60;37.80;;;;;;7568852;23;87822;-51
2023/05/04 13:48:40;;;;;;;4.25;2.22;;;23.60;37.70;;;;;;7604541;23;80359;-66
2023/05/04 13:51:42;;;;;;;2.95;2.30;;;23.70;37.80;;;;;;7567584;23;80604;-64
2023/05/04 13:54:42;;;;;;;4.53;2.60;;;23.70;38.00;;;;;;7599397;23;81171;-69
2023/05/04 13:57:44;;;;;;;3.90;2.28;;;23.80;38.30;;;;;;7590752;23;80164;-78
2023/05/04 14:00:44;;;;;;;2.45;2.13;;;23.80;38.70;;;;;;7594818;23;80857;-65
2023/05/04 14:03:45;;;;;;;4.95;2.17;;;23.90;39.20;;;;;;7597828;23;81953;-65
2023/05/04 14:06:46;;;;;;;3.85;2.13;;;23.90;39.50;;;;;;7601223;23;80467;-63
2023/05/04 14:09:47;;;;;;;4.28;2.30;;;23.90;39.70;;;;;;7602959;23;80893;-66
2023/05/04 14:12:47;;;;;;;5.43;1.95;;;24.00;39.90;;;;;;7600473;23;80341;-70
2023/05/04 14:15:48;;;;;;;2.55;2.17;;;24.00;40.00;;;;;;7605704;23;80199;-68
2023/05/04 14:18:49;;;;;;;6.47;2.60;;;24.00;40.10;;;;;;7605422;23;80381;-69
2023/05/04 14:21:49;;;;;;;6.50;2.28;;;24.10;40.20;;;;;;7601912;23;80391;-68
2023/05/04 14:24:50;;;;;;;2.35;1.98;;;24.10;40.30;;;;;;7605070;23;81542;-71
2023/05/04 14:27:51;;;;;;;4.60;2.20;;;24.10;40.40;;;;;;7597545;23;81019;-69
2023/05/04 14:30:51;;;;;;;3.13;2.30;;;24.20;40.70;;;;;;7608875;23;80964;-68
2023/05/04 14:33:52;;;;;;;4.82;2.35;;;24.10;40.60;;;;;;7607348;23;80308;-72
2023/05/04 14:36:52;;;;;;;6.40;2.28;;;24.10;40.60;;;;;;7604000;23;81487;-69
2023/05/04 14:39:53;;;;;;;2.03;1.73;;;24.20;40.70;;;;;;7605981;23;80074;-70
2023/05/04 14:42:53;;;;;;;2.33;1.83;;;24.20;40.90;;;;;;7594110;23;81043;-73
2023/05/04 14:45:55;;;;;;;2.47;1.95;;;24.20;41.00;;;;;;7600620;23;80866;-69
2023/05/04 14:48:56;;;;;;;2.88;1.80;;;24.20;41.30;;;;;;7595367;23;81133;-69
2023/05/04 14:51:57;;;;;;;2.28;1.73;;;24.20;41.40;;;;;;7598836;23;80606;-72
2023/05/04 14:54:57;;;;;;;2.25;1.70;;;24.20;41.60;;;;;;7602275;23;80360;-67
2023/05/04 14:57:58;;;;;;;3.65;1.98;;;24.20;41.60;;;;;;7601697;23;80658;-64
2023/05/04 15:00:58;;;;;;;3.53;2.35;;;24.20;41.40;;;;;;7601257;23;80656;-60
2023/05/04 15:03:59;;;;;;;8.63;2.35;;;24.10;41.20;;;;;;7604041;23;80602;-62
2023/05/04 15:06:59;;;;;;;2.63;1.63;;;24.10;41.10;;;;;;7601712;23;81001;-61
2023/05/04 15:10:00;;;;;;;9.30;2.15;;;24.10;41.20;;;;;;7597002;23;80720;-61
2023/05/04 15:13:02;;;;;;;2.50;1.77;;;24.10;41.30;;;;;;7598772;23;80546;-61
2023/05/04 15:16:03;;;;;;;3.95;2.80;;;24.10;41.60;;;;;;7600232;23;80513;-59
2023/05/04 15:19:04;;;;;;;6.10;3.85;;;24.10;41.80;;;;;;7597189;23;80504;-63
2023/05/04 15:22:04;;;;;;;12.00;6.07;;;24.00;42.00;;;;;;7598097;23;84820;-58
2023/05/04 15:25:05;;;;;;;13.57;7.70;;;24.00;42.20;;;;;;7600993;23;80631;-67
2023/05/04 15:28:12;;;;;;;16.60;9.25;;;24.10;42.70;;;;;;7600763;23;80877;-67
2023/05/04 15:31:12;;;;;;;25.02;11.75;;;24.10;43.10;;;;;;7599328;23;80691;-71
2023/05/04 15:34:13;;;;;;;24.98;11.32;;;24.10;43.20;;;;;;7596947;23;82751;-72
2023/05/04 15:37:13;;;;;;;31.05;10.75;;;24.10;43.30;;;;;;7596097;23;83296;-71
2023/05/04 15:40:14;;;;;;;22.98;11.30;;;24.10;43.50;;;;;;7594738;23;83053;-72
2023/05/04 15:43:15;;;;;;;22.50;11.20;;;24.10;43.70;;;;;;7598655;23;83201;-58
2023/05/04 15:46:15;;;;;;;23.20;11.35;;;24.10;43.70;;;;;;7569094;23;85469;-61
2023/05/04 15:49:16;;;;;;;20.25;11.43;;;24.10;43.60;;;;;;7597371;23;83565;-59